sensor_id;sensor_type;location;lat;lon;timestamp;P1;durP1;ratioP1;P2;durP2;ratioP2
27792;SDS011;15174;48.190;11.462;2024-01-07T00:01:55;31.67;;;15.52;;
27792;SDS011;15174;48.190;11.462;2024-01-07T00:04:21;27.67;;;15.05;;
27792;SDS011;15174;48.190;11.462;2024-01-07T00:06:47;27.23;;;14.25;;
27792;SDS011;15174;48.190;11.462;2024-01-07T00:09:13;32.08;;;14.30;;
27792;SDS011;15174;48.190;11.462;2024-01-07T00:11:40;33.05;;;14.13;;
27792;SDS011;15174;48.190;11.462;2024-01-07T00:14:06;27.42;;;13.60;;
27792;SDS011;15174;48.190;11.462;2024-01-07T00:16:32;32.45;;;15.27;;
27792;SDS011;15174;48.190;11.462;2024-01-07T00:18:59;34.75;;;15.70;;
27792;SDS011;15174;48.190;11.462;2024-01-07T00:21:25;31.17;;;14.65;;
27792;SDS011;15174;48.190;11.462;2024-01-07T00:23:51;36.17;;;15.38;;
27792;SDS011;15174;48.190;11.462;2024-01-07T00:26:17;33.10;;;15.50;;
27792;SDS011;15174;48.190;11.462;2024-01-07T00:28:43;28.25;;;13.50;;
27792;SDS011;15174;48.190;11.462;2024-01-07T00:31:10;28.63;;;15.18;;
27792;SDS011;15174;48.190;11.462;2024-01-07T00:33:37;38.83;;;15.13;;
27792;SDS011;15174;48.190;11.462;2024-01-07T00:36:03;35.58;;;17.13;;
27792;SDS011;15174;48.190;11.462;2024-01-07T00:38:29;30.20;;;14.75;;
27792;SDS011;15174;48.190;11.462;2024-01-07T00:40:55;30.45;;;15.23;;
27792;SDS011;15174;48.190;11.462;2024-01-07T00:43:21;31.38;;;14.98;;
27792;SDS011;15174;48.190;11.462;2024-01-07T00:45:47;29.17;;;15.18;;
27792;SDS011;15174;48.190;11.462;2024-01-07T00:48:13;32.63;;;15.00;;
27792;SDS011;15174;48.190;11.462;2024-01-07T00:50:40;38.25;;;16.98;;
27792;SDS011;15174;48.190;11.462;2024-01-07T00:53:06;38.72;;;17.02;;
27792;SDS011;15174;48.190;11.462;2024-01-07T00:55:32;41.13;;;18.67;;
27792;SDS011;15174;48.190;11.462;2024-01-07T00:58:00;49.70;;;19.27;;
27792;SDS011;15174;48.190;11.462;2024-01-07T01:00:26;49.38;;;20.10;;
27792;SDS011;15174;48.190;11.462;2024-01-07T01:02:53;52.65;;;20.45;;
27792;SDS011;15174;48.190;11.462;2024-01-07T01:05:20;37.45;;;17.38;;
27792;SDS011;15174;48.190;11.462;2024-01-07T01:07:46;44.53;;;18.73;;
27792;SDS011;15174;48.190;11.462;2024-01-07T01:10:12;45.35;;;18.80;;
27792;SDS011;15174;48.190;11.462;2024-01-07T01:12:41;48.90;;;18.70;;
27792;SDS011;15174;48.190;11.462;2024-01-07T01:15:09;57.30;;;20.92;;
27792;SDS011;15174;48.190;11.462;2024-01-07T01:17:35;54.78;;;21.42;;
27792;SDS011;15174;48.190;11.462;2024-01-07T01:20:01;71.28;;;25.08;;
27792;SDS011;15174;48.190;11.462;2024-01-07T01:22:28;75.15;;;23.60;;
27792;SDS011;15174;48.190;11.462;2024-01-07T01:24:54;73.32;;;22.83;;
27792;SDS011;15174;48.190;11.462;2024-01-07T01:27:21;76.33;;;27.70;;
27792;SDS011;15174;48.190;11.462;2024-01-07T01:29:47;67.30;;;23.23;;
27792;SDS011;15174;48.190;11.462;2024-01-07T01:32:13;68.78;;;25.15;;
27792;SDS011;15174;48.190;11.462;2024-01-07T01:34:42;63.50;;;22.05;;
27792;SDS011;15174;48.190;11.462;2024-01-07T01:37:08;59.88;;;20.13;;
27792;SDS011;15174;48.190;11.462;2024-01-07T01:39:34;61.45;;;21.55;;
27792;SDS011;15174;48.190;11.462;2024-01-07T01:42:01;52.65;;;21.63;;
27792;SDS011;15174;48.190;11.462;2024-01-07T01:44:27;69.50;;;23.15;;
27792;SDS011;15174;48.190;11.462;2024-01-07T01:46:53;53.25;;;21.23;;
27792;SDS011;15174;48.190;11.462;2024-01-07T01:49:20;52.97;;;19.85;;
27792;SDS011;15174;48.190;11.462;2024-01-07T01:51:46;41.40;;;17.83;;
27792;SDS011;15174;48.190;11.462;2024-01-07T01:54:12;33.35;;;15.68;;
27792;SDS011;15174;48.190;11.462;2024-01-07T01:56:38;36.58;;;16.55;;
27792;SDS011;15174;48.190;11.462;2024-01-07T01:59:05;34.30;;;15.43;;
27792;SDS011;15174;48.190;11.462;2024-01-07T02:01:31;30.23;;;14.60;;
27792;SDS011;15174;48.190;11.462;2024-01-07T02:03:57;24.48;;;13.30;;
27792;SDS011;15174;48.190;11.462;2024-01-07T02:06:23;23.77;;;13.80;;
27792;SDS011;15174;48.190;11.462;2024-01-07T02:08:50;26.25;;;13.68;;
27792;SDS011;15174;48.190;11.462;2024-01-07T02:11:20;28.30;;;14.85;;
27792;SDS011;15174;48.190;11.462;2024-01-07T02:13:47;27.58;;;15.07;;
27792;SDS011;15174;48.190;11.462;2024-01-07T02:16:13;29.45;;;15.90;;
27792;SDS011;15174;48.190;11.462;2024-01-07T02:18:40;27.55;;;14.00;;
27792;SDS011;15174;48.190;11.462;2024-01-07T02:21:07;31.70;;;15.87;;
27792;SDS011;15174;48.190;11.462;2024-01-07T02:23:33;32.67;;;15.85;;
27792;SDS011;15174;48.190;11.462;2024-01-07T02:25:59;28.73;;;15.18;;
27792;SDS011;15174;48.190;11.462;2024-01-07T02:28:25;32.05;;;14.82;;
27792;SDS011;15174;48.190;11.462;2024-01-07T02:30:51;28.38;;;14.85;;
27792;SDS011;15174;48.190;11.462;2024-01-07T02:33:17;28.23;;;15.85;;
27792;SDS011;15174;48.190;11.462;2024-01-07T02:35:43;23.60;;;13.40;;
27792;SDS011;15174;48.190;11.462;2024-01-07T02:38:09;33.65;;;15.60;;
27792;SDS011;15174;48.190;11.462;2024-01-07T02:40:35;24.83;;;13.60;;
27792;SDS011;15174;48.190;11.462;2024-01-07T02:43:01;30.83;;;15.02;;
27792;SDS011;15174;48.190;11.462;2024-01-07T02:45:28;28.30;;;14.60;;
27792;SDS011;15174;48.190;11.462;2024-01-07T02:47:54;35.67;;;14.27;;
27792;SDS011;15174;48.190;11.462;2024-01-07T02:50:21;25.40;;;13.50;;
27792;SDS011;15174;48.190;11.462;2024-01-07T02:52:47;27.60;;;14.15;;
27792;SDS011;15174;48.190;11.462;2024-01-07T02:55:13;27.88;;;13.65;;
27792;SDS011;15174;48.190;11.462;2024-01-07T02:57:39;30.13;;;14.52;;
27792;SDS011;15174;48.190;11.462;2024-01-07T03:00:05;28.70;;;13.85;;
27792;SDS011;15174;48.190;11.462;2024-01-07T03:02:31;25.95;;;14.73;;
27792;SDS011;15174;48.190;11.462;2024-01-07T03:05:11;24.30;;;13.38;;
27792;SDS011;15174;48.190;11.462;2024-01-07T03:07:37;26.33;;;14.00;;
27792;SDS011;15174;48.190;11.462;2024-01-07T03:10:05;23.15;;;12.35;;
27792;SDS011;15174;48.190;11.462;2024-01-07T03:12:31;27.48;;;13.38;;
27792;SDS011;15174;48.190;11.462;2024-01-07T03:14:57;26.92;;;14.40;;
27792;SDS011;15174;48.190;11.462;2024-01-07T03:17:23;26.23;;;13.52;;
27792;SDS011;15174;48.190;11.462;2024-01-07T03:19:49;23.80;;;12.82;;
27792;SDS011;15174;48.190;11.462;2024-01-07T03:22:15;29.98;;;13.85;;
27792;SDS011;15174;48.190;11.462;2024-01-07T03:24:41;21.27;;;12.55;;
27792;SDS011;15174;48.190;11.462;2024-01-07T03:27:08;25.77;;;13.40;;
27792;SDS011;15174;48.190;11.462;2024-01-07T03:29:34;26.80;;;13.77;;
27792;SDS011;15174;48.190;11.462;2024-01-07T03:32:01;24.80;;;13.27;;
27792;SDS011;15174;48.190;11.462;2024-01-07T03:34:27;26.00;;;13.35;;
27792;SDS011;15174;48.190;11.462;2024-01-07T03:36:53;27.88;;;14.10;;
27792;SDS011;15174;48.190;11.462;2024-01-07T03:39:19;25.33;;;13.93;;
27792;SDS011;15174;48.190;11.462;2024-01-07T03:41:45;24.60;;;13.32;;
27792;SDS011;15174;48.190;11.462;2024-01-07T03:44:11;28.48;;;14.07;;
27792;SDS011;15174;48.190;11.462;2024-01-07T03:46:37;26.45;;;13.10;;
27792;SDS011;15174;48.190;11.462;2024-01-07T03:49:03;25.75;;;13.25;;
27792;SDS011;15174;48.190;11.462;2024-01-07T03:51:29;27.98;;;14.32;;
27792;SDS011;15174;48.190;11.462;2024-01-07T03:53:55;18.05;;;10.43;;
27792;SDS011;15174;48.190;11.462;2024-01-07T03:56:21;27.95;;;13.13;;
27792;SDS011;15174;48.190;11.462;2024-01-07T03:58:47;25.33;;;14.35;;
27792;SDS011;15174;48.190;11.462;2024-01-07T04:01:16;26.17;;;13.48;;
27792;SDS011;15174;48.190;11.462;2024-01-07T04:03:43;24.83;;;12.27;;
27792;SDS011;15174;48.190;11.462;2024-01-07T04:06:09;27.55;;;13.98;;
27792;SDS011;15174;48.190;11.462;2024-01-07T04:08:35;24.42;;;12.90;;
27792;SDS011;15174;48.190;11.462;2024-01-07T04:11:01;25.85;;;13.98;;
27792;SDS011;15174;48.190;11.462;2024-01-07T04:13:27;23.25;;;12.82;;
27792;SDS011;15174;48.190;11.462;2024-01-07T04:15:53;28.83;;;14.77;;
27792;SDS011;15174;48.190;11.462;2024-01-07T04:18:19;24.80;;;13.27;;
27792;SDS011;15174;48.190;11.462;2024-01-07T04:20:45;29.98;;;15.02;;
27792;SDS011;15174;48.190;11.462;2024-01-07T04:23:11;30.42;;;14.27;;
27792;SDS011;15174;48.190;11.462;2024-01-07T04:25:37;31.00;;;14.20;;
27792;SDS011;15174;48.190;11.462;2024-01-07T04:30:31;27.45;;;13.80;;
27792;SDS011;15174;48.190;11.462;2024-01-07T04:32:57;25.77;;;14.50;;
27792;SDS011;15174;48.190;11.462;2024-01-07T04:35:23;26.13;;;13.35;;
27792;SDS011;15174;48.190;11.462;2024-01-07T04:37:49;26.02;;;13.48;;
27792;SDS011;15174;48.190;11.462;2024-01-07T04:40:15;26.25;;;14.07;;
27792;SDS011;15174;48.190;11.462;2024-01-07T04:42:42;23.35;;;13.05;;
27792;SDS011;15174;48.190;11.462;2024-01-07T04:45:08;24.30;;;13.57;;
27792;SDS011;15174;48.190;11.462;2024-01-07T04:47:34;26.55;;;13.73;;
27792;SDS011;15174;48.190;11.462;2024-01-07T04:50:00;23.55;;;13.55;;
27792;SDS011;15174;48.190;11.462;2024-01-07T04:52:26;21.52;;;12.10;;
27792;SDS011;15174;48.190;11.462;2024-01-07T04:54:53;24.02;;;13.00;;
27792;SDS011;15174;48.190;11.462;2024-01-07T04:57:19;23.05;;;12.57;;
27792;SDS011;15174;48.190;11.462;2024-01-07T04:59:46;20.83;;;12.73;;
27792;SDS011;15174;48.190;11.462;2024-01-07T05:02:12;22.50;;;12.57;;
27792;SDS011;15174;48.190;11.462;2024-01-07T05:04:39;24.15;;;13.95;;
27792;SDS011;15174;48.190;11.462;2024-01-07T05:07:05;24.02;;;12.85;;
27792;SDS011;15174;48.190;11.462;2024-01-07T05:09:34;24.15;;;12.85;;
27792;SDS011;15174;48.190;11.462;2024-01-07T05:12:00;26.25;;;12.95;;
27792;SDS011;15174;48.190;11.462;2024-01-07T05:14:26;24.60;;;13.07;;
27792;SDS011;15174;48.190;11.462;2024-01-07T05:16:53;24.67;;;12.45;;
27792;SDS011;15174;48.190;11.462;2024-01-07T05:19:20;27.90;;;12.38;;
27792;SDS011;15174;48.190;11.462;2024-01-07T05:21:46;22.65;;;12.85;;
27792;SDS011;15174;48.190;11.462;2024-01-07T05:24:12;20.52;;;11.27;;
27792;SDS011;15174;48.190;11.462;2024-01-07T05:26:39;24.50;;;12.40;;
27792;SDS011;15174;48.190;11.462;2024-01-07T05:29:05;29.17;;;12.73;;
27792;SDS011;15174;48.190;11.462;2024-01-07T05:31:31;21.90;;;12.30;;
27792;SDS011;15174;48.190;11.462;2024-01-07T05:33:57;22.67;;;12.73;;
27792;SDS011;15174;48.190;11.462;2024-01-07T05:36:23;24.83;;;12.98;;
27792;SDS011;15174;48.190;11.462;2024-01-07T05:38:49;22.17;;;12.68;;
27792;SDS011;15174;48.190;11.462;2024-01-07T05:41:15;26.55;;;12.13;;
27792;SDS011;15174;48.190;11.462;2024-01-07T05:43:41;25.52;;;12.57;;
27792;SDS011;15174;48.190;11.462;2024-01-07T05:46:07;23.27;;;12.38;;
27792;SDS011;15174;48.190;11.462;2024-01-07T05:48:47;21.83;;;12.57;;
27792;SDS011;15174;48.190;11.462;2024-01-07T05:51:14;23.13;;;12.43;;
27792;SDS011;15174;48.190;11.462;2024-01-07T05:53:40;27.58;;;12.27;;
27792;SDS011;15174;48.190;11.462;2024-01-07T05:56:07;18.53;;;10.77;;
27792;SDS011;15174;48.190;11.462;2024-01-07T05:58:33;22.60;;;11.93;;
27792;SDS011;15174;48.190;11.462;2024-01-07T06:00:59;22.55;;;12.73;;
27792;SDS011;15174;48.190;11.462;2024-01-07T06:03:25;23.25;;;11.57;;
27792;SDS011;15174;48.190;11.462;2024-01-07T06:05:51;20.35;;;10.93;;
27792;SDS011;15174;48.190;11.462;2024-01-07T06:08:17;21.13;;;11.35;;
27792;SDS011;15174;48.190;11.462;2024-01-07T06:10:44;21.25;;;12.25;;
27792;SDS011;15174;48.190;11.462;2024-01-07T06:13:10;23.50;;;11.88;;
27792;SDS011;15174;48.190;11.462;2024-01-07T06:15:36;22.00;;;11.48;;
27792;SDS011;15174;48.190;11.462;2024-01-07T06:18:02;19.08;;;10.40;;
27792;SDS011;15174;48.190;11.462;2024-01-07T06:20:28;20.67;;;10.75;;
27792;SDS011;15174;48.190;11.462;2024-01-07T06:22:54;22.63;;;11.73;;
27792;SDS011;15174;48.190;11.462;2024-01-07T06:25:20;21.75;;;11.70;;
27792;SDS011;15174;48.190;11.462;2024-01-07T06:27:46;20.70;;;11.95;;
27792;SDS011;15174;48.190;11.462;2024-01-07T06:30:12;22.73;;;12.10;;
27792;SDS011;15174;48.190;11.462;2024-01-07T06:32:39;24.65;;;11.32;;
27792;SDS011;15174;48.190;11.462;2024-01-07T06:35:05;22.83;;;12.43;;
27792;SDS011;15174;48.190;11.462;2024-01-07T06:37:31;20.98;;;11.32;;
27792;SDS011;15174;48.190;11.462;2024-01-07T06:39:57;25.63;;;12.52;;
27792;SDS011;15174;48.190;11.462;2024-01-07T06:42:23;20.08;;;12.18;;
27792;SDS011;15174;48.190;11.462;2024-01-07T06:44:49;24.63;;;12.50;;
27792;SDS011;15174;48.190;11.462;2024-01-07T06:47:15;24.83;;;12.60;;
27792;SDS011;15174;48.190;11.462;2024-01-07T06:49:41;23.58;;;12.13;;
27792;SDS011;15174;48.190;11.462;2024-01-07T06:52:07;23.02;;;11.95;;
27792;SDS011;15174;48.190;11.462;2024-01-07T06:54:33;23.88;;;12.38;;
27792;SDS011;15174;48.190;11.462;2024-01-07T06:56:59;30.25;;;13.52;;
27792;SDS011;15174;48.190;11.462;2024-01-07T06:59:26;25.33;;;13.50;;
27792;SDS011;15174;48.190;11.462;2024-01-07T07:01:52;23.65;;;12.45;;
27792;SDS011;15174;48.190;11.462;2024-01-07T07:04:20;27.60;;;12.80;;
27792;SDS011;15174;48.190;11.462;2024-01-07T07:06:46;24.83;;;12.25;;
27792;SDS011;15174;48.190;11.462;2024-01-07T07:09:12;23.23;;;13.07;;
27792;SDS011;15174;48.190;11.462;2024-01-07T07:11:40;24.35;;;12.85;;
27792;SDS011;15174;48.190;11.462;2024-01-07T07:14:06;25.55;;;12.63;;
27792;SDS011;15174;48.190;11.462;2024-01-07T07:16:32;23.05;;;12.63;;
27792;SDS011;15174;48.190;11.462;2024-01-07T07:18:58;23.48;;;12.15;;
27792;SDS011;15174;48.190;11.462;2024-01-07T07:21:24;21.55;;;11.38;;
27792;SDS011;15174;48.190;11.462;2024-01-07T07:23:52;24.90;;;11.75;;
27792;SDS011;15174;48.190;11.462;2024-01-07T07:26:18;22.75;;;12.13;;
27792;SDS011;15174;48.190;11.462;2024-01-07T07:28:44;24.77;;;13.07;;
27792;SDS011;15174;48.190;11.462;2024-01-07T07:31:11;22.83;;;11.85;;
27792;SDS011;15174;48.190;11.462;2024-01-07T07:33:40;21.55;;;11.63;;
27792;SDS011;15174;48.190;11.462;2024-01-07T07:36:06;25.60;;;12.95;;
27792;SDS011;15174;48.190;11.462;2024-01-07T07:38:33;24.02;;;12.50;;
27792;SDS011;15174;48.190;11.462;2024-01-07T07:40:59;27.27;;;14.18;;
27792;SDS011;15174;48.190;11.462;2024-01-07T07:43:25;25.40;;;13.27;;
27792;SDS011;15174;48.190;11.462;2024-01-07T07:45:52;25.98;;;12.90;;
27792;SDS011;15174;48.190;11.462;2024-01-07T07:48:18;32.53;;;15.00;;
27792;SDS011;15174;48.190;11.462;2024-01-07T07:50:44;27.27;;;13.45;;
27792;SDS011;15174;48.190;11.462;2024-01-07T07:53:10;25.88;;;13.75;;
27792;SDS011;15174;48.190;11.462;2024-01-07T07:55:36;24.50;;;12.30;;
27792;SDS011;15174;48.190;11.462;2024-01-07T07:58:02;34.90;;;16.95;;
27792;SDS011;15174;48.190;11.462;2024-01-07T08:00:28;28.58;;;15.18;;
27792;SDS011;15174;48.190;11.462;2024-01-07T08:02:55;25.70;;;12.50;;
27792;SDS011;15174;48.190;11.462;2024-01-07T08:05:21;26.73;;;13.98;;
27792;SDS011;15174;48.190;11.462;2024-01-07T08:07:47;28.90;;;13.65;;
27792;SDS011;15174;48.190;11.462;2024-01-07T08:10:13;22.73;;;12.65;;
27792;SDS011;15174;48.190;11.462;2024-01-07T08:12:39;27.40;;;12.38;;
27792;SDS011;15174;48.190;11.462;2024-01-07T08:15:05;25.17;;;13.15;;
27792;SDS011;15174;48.190;11.462;2024-01-07T08:17:31;25.77;;;11.88;;
27792;SDS011;15174;48.190;11.462;2024-01-07T08:19:57;22.40;;;11.95;;
27792;SDS011;15174;48.190;11.462;2024-01-07T08:22:23;31.60;;;12.93;;
27792;SDS011;15174;48.190;11.462;2024-01-07T08:24:49;27.95;;;12.45;;
27792;SDS011;15174;48.190;11.462;2024-01-07T08:27:15;22.30;;;11.40;;
27792;SDS011;15174;48.190;11.462;2024-01-07T08:29:42;27.77;;;13.48;;
27792;SDS011;15174;48.190;11.462;2024-01-07T08:32:09;32.70;;;15.97;;
27792;SDS011;15174;48.190;11.462;2024-01-07T08:34:35;42.42;;;18.77;;
27792;SDS011;15174;48.190;11.462;2024-01-07T08:37:01;36.50;;;16.13;;
27792;SDS011;15174;48.190;11.462;2024-01-07T08:39:27;31.40;;;14.40;;
27792;SDS011;15174;48.190;11.462;2024-01-07T08:41:54;27.48;;;14.68;;
27792;SDS011;15174;48.190;11.462;2024-01-07T08:44:20;28.02;;;12.63;;
27792;SDS011;15174;48.190;11.462;2024-01-07T08:46:46;34.03;;;14.80;;
27792;SDS011;15174;48.190;11.462;2024-01-07T08:49:12;32.75;;;15.82;;
27792;SDS011;15174;48.190;11.462;2024-01-07T08:51:39;32.28;;;14.73;;
27792;SDS011;15174;48.190;11.462;2024-01-07T08:54:05;39.05;;;17.60;;
27792;SDS011;15174;48.190;11.462;2024-01-07T08:56:31;46.55;;;18.98;;
27792;SDS011;15174;48.190;11.462;2024-01-07T08:58:57;33.35;;;14.57;;
27792;SDS011;15174;48.190;11.462;2024-01-07T09:01:24;30.80;;;14.80;;
27792;SDS011;15174;48.190;11.462;2024-01-07T09:03:50;33.85;;;15.93;;
27792;SDS011;15174;48.190;11.462;2024-01-07T09:06:16;29.77;;;14.10;;
27792;SDS011;15174;48.190;11.462;2024-01-07T09:08:42;33.90;;;15.23;;
27792;SDS011;15174;48.190;11.462;2024-01-07T09:11:08;36.15;;;17.13;;
27792;SDS011;15174;48.190;11.462;2024-01-07T09:13:37;33.72;;;15.75;;
27792;SDS011;15174;48.190;11.462;2024-01-07T09:16:03;31.48;;;14.63;;
27792;SDS011;15174;48.190;11.462;2024-01-07T09:18:29;36.83;;;15.95;;
27792;SDS011;15174;48.190;11.462;2024-01-07T09:20:56;35.40;;;14.75;;
27792;SDS011;15174;48.190;11.462;2024-01-07T09:23:22;38.75;;;17.13;;
27792;SDS011;15174;48.190;11.462;2024-01-07T09:25:48;32.58;;;16.73;;
27792;SDS011;15174;48.190;11.462;2024-01-07T09:28:14;34.00;;;14.82;;
27792;SDS011;15174;48.190;11.462;2024-01-07T09:30:40;32.33;;;15.05;;
27792;SDS011;15174;48.190;11.462;2024-01-07T09:33:06;34.58;;;15.45;;
27792;SDS011;15174;48.190;11.462;2024-01-07T09:35:32;35.70;;;15.55;;
27792;SDS011;15174;48.190;11.462;2024-01-07T09:37:58;31.63;;;14.23;;
27792;SDS011;15174;48.190;11.462;2024-01-07T09:40:24;34.42;;;15.10;;
27792;SDS011;15174;48.190;11.462;2024-01-07T09:42:50;32.92;;;14.52;;
27792;SDS011;15174;48.190;11.462;2024-01-07T09:45:16;27.75;;;14.50;;
27792;SDS011;15174;48.190;11.462;2024-01-07T09:47:44;30.88;;;14.45;;
27792;SDS011;15174;48.190;11.462;2024-01-07T09:50:11;29.60;;;13.43;;
27792;SDS011;15174;48.190;11.462;2024-01-07T09:52:38;28.70;;;14.07;;
27792;SDS011;15174;48.190;11.462;2024-01-07T09:55:09;30.85;;;14.15;;
27792;SDS011;15174;48.190;11.462;2024-01-07T09:57:35;32.75;;;13.43;;
27792;SDS011;15174;48.190;11.462;2024-01-07T10:00:02;30.00;;;14.40;;
27792;SDS011;15174;48.190;11.462;2024-01-07T10:02:37;34.70;;;13.95;;
27792;SDS011;15174;48.190;11.462;2024-01-07T10:05:06;28.23;;;13.63;;
27792;SDS011;15174;48.190;11.462;2024-01-07T10:07:32;26.63;;;13.35;;
27792;SDS011;15174;48.190;11.462;2024-01-07T10:09:58;21.75;;;12.35;;
27792;SDS011;15174;48.190;11.462;2024-01-07T10:12:35;28.77;;;13.52;;
27792;SDS011;15174;48.190;11.462;2024-01-07T10:15:01;28.75;;;13.10;;
27792;SDS011;15174;48.190;11.462;2024-01-07T10:17:27;34.75;;;14.48;;
27792;SDS011;15174;48.190;11.462;2024-01-07T10:19:54;25.02;;;12.45;;
27792;SDS011;15174;48.190;11.462;2024-01-07T10:22:20;30.92;;;13.45;;
27792;SDS011;15174;48.190;11.462;2024-01-07T10:24:46;25.35;;;13.30;;
27792;SDS011;15174;48.190;11.462;2024-01-07T10:27:14;23.33;;;12.27;;
27792;SDS011;15174;48.190;11.462;2024-01-07T10:29:40;25.27;;;12.00;;
27792;SDS011;15174;48.190;11.462;2024-01-07T10:32:06;20.83;;;11.23;;
27792;SDS011;15174;48.190;11.462;2024-01-07T10:34:33;25.08;;;12.23;;
27792;SDS011;15174;48.190;11.462;2024-01-07T10:37:00;26.95;;;11.75;;
27792;SDS011;15174;48.190;11.462;2024-01-07T10:39:26;29.92;;;13.40;;
27792;SDS011;15174;48.190;11.462;2024-01-07T10:41:53;21.52;;;11.65;;
27792;SDS011;15174;48.190;11.462;2024-01-07T10:44:26;28.15;;;12.75;;
27792;SDS011;15174;48.190;11.462;2024-01-07T10:46:55;21.08;;;11.38;;
27792;SDS011;15174;48.190;11.462;2024-01-07T10:49:22;27.75;;;13.38;;
27792;SDS011;15174;48.190;11.462;2024-01-07T10:54:21;22.00;;;10.90;;
27792;SDS011;15174;48.190;11.462;2024-01-07T10:56:48;30.20;;;12.85;;
27792;SDS011;15174;48.190;11.462;2024-01-07T10:59:15;22.08;;;12.05;;
27792;SDS011;15174;48.190;11.462;2024-01-07T11:01:41;21.52;;;10.95;;
27792;SDS011;15174;48.190;11.462;2024-01-07T11:06:36;20.90;;;10.05;;
27792;SDS011;15174;48.190;11.462;2024-01-07T11:09:47;19.65;;;10.38;;
27792;SDS011;15174;48.190;11.462;2024-01-07T11:11:54;26.55;;;11.45;;
27792;SDS011;15174;48.190;11.462;2024-01-07T11:14:54;26.30;;;11.98;;
27792;SDS011;15174;48.190;11.462;2024-01-07T11:20:02;24.70;;;10.65;;
27792;SDS011;15174;48.190;11.462;2024-01-07T11:22:28;22.20;;;10.38;;
27792;SDS011;15174;48.190;11.462;2024-01-07T11:24:58;21.00;;;10.57;;
27792;SDS011;15174;48.190;11.462;2024-01-07T11:27:25;20.37;;;10.53;;
27792;SDS011;15174;48.190;11.462;2024-01-07T11:30:04;24.10;;;11.25;;
27792;SDS011;15174;48.190;11.462;2024-01-07T11:32:33;19.92;;;10.55;;
27792;SDS011;15174;48.190;11.462;2024-01-07T11:34:59;19.17;;;10.77;;
27792;SDS011;15174;48.190;11.462;2024-01-07T11:37:26;21.20;;;10.77;;
27792;SDS011;15174;48.190;11.462;2024-01-07T11:39:55;21.92;;;10.73;;
27792;SDS011;15174;48.190;11.462;2024-01-07T11:42:25;18.35;;;9.35;;
27792;SDS011;15174;48.190;11.462;2024-01-07T11:44:54;23.13;;;10.90;;
27792;SDS011;15174;48.190;11.462;2024-01-07T11:47:21;20.08;;;10.80;;
27792;SDS011;15174;48.190;11.462;2024-01-07T11:49:47;29.25;;;12.30;;
27792;SDS011;15174;48.190;11.462;2024-01-07T11:52:17;22.50;;;11.48;;
27792;SDS011;15174;48.190;11.462;2024-01-07T11:54:43;21.60;;;11.85;;
27792;SDS011;15174;48.190;11.462;2024-01-07T11:57:09;23.13;;;11.65;;
27792;SDS011;15174;48.190;11.462;2024-01-07T11:59:36;22.27;;;11.20;;
27792;SDS011;15174;48.190;11.462;2024-01-07T12:02:02;29.95;;;12.15;;
27792;SDS011;15174;48.190;11.462;2024-01-07T12:04:32;27.98;;;13.75;;
27792;SDS011;15174;48.190;11.462;2024-01-07T12:06:58;26.42;;;13.43;;
27792;SDS011;15174;48.190;11.462;2024-01-07T12:09:25;25.30;;;13.63;;
27792;SDS011;15174;48.190;11.462;2024-01-07T12:11:51;31.45;;;13.00;;
27792;SDS011;15174;48.190;11.462;2024-01-07T12:14:17;25.30;;;13.25;;
27792;SDS011;15174;48.190;11.462;2024-01-07T12:16:44;21.50;;;11.73;;
27792;SDS011;15174;48.190;11.462;2024-01-07T12:19:10;25.38;;;11.80;;
27792;SDS011;15174;48.190;11.462;2024-01-07T12:21:36;20.35;;;11.13;;
27792;SDS011;15174;48.190;11.462;2024-01-07T12:24:03;21.63;;;10.90;;
27792;SDS011;15174;48.190;11.462;2024-01-07T12:26:29;27.33;;;13.20;;
27792;SDS011;15174;48.190;11.462;2024-01-07T12:28:58;24.15;;;11.82;;
27792;SDS011;15174;48.190;11.462;2024-01-07T12:31:28;24.60;;;11.63;;
27792;SDS011;15174;48.190;11.462;2024-01-07T12:33:54;26.05;;;12.18;;
27792;SDS011;15174;48.190;11.462;2024-01-07T12:36:22;21.25;;;11.00;;
27792;SDS011;15174;48.190;11.462;2024-01-07T12:38:48;31.38;;;15.23;;
27792;SDS011;15174;48.190;11.462;2024-01-07T12:41:15;21.55;;;12.32;;
27792;SDS011;15174;48.190;11.462;2024-01-07T12:43:41;25.88;;;11.63;;
27792;SDS011;15174;48.190;11.462;2024-01-07T12:46:07;26.58;;;13.00;;
27792;SDS011;15174;48.190;11.462;2024-01-07T12:48:33;21.30;;;11.57;;
27792;SDS011;15174;48.190;11.462;2024-01-07T12:50:59;23.92;;;10.80;;
27792;SDS011;15174;48.190;11.462;2024-01-07T12:53:26;19.98;;;10.25;;
27792;SDS011;15174;48.190;11.462;2024-01-07T12:55:52;18.13;;;9.23;;
27792;SDS011;15174;48.190;11.462;2024-01-07T12:58:18;18.55;;;9.15;;
27792;SDS011;15174;48.190;11.462;2024-01-07T13:00:46;20.97;;;10.40;;
27792;SDS011;15174;48.190;11.462;2024-01-07T13:03:12;17.15;;;9.13;;
27792;SDS011;15174;48.190;11.462;2024-01-07T13:05:44;20.80;;;9.40;;
27792;SDS011;15174;48.190;11.462;2024-01-07T13:08:15;16.75;;;10.07;;
27792;SDS011;15174;48.190;11.462;2024-01-07T13:10:43;20.67;;;10.82;;
27792;SDS011;15174;48.190;11.462;2024-01-07T13:13:09;20.95;;;10.20;;
27792;SDS011;15174;48.190;11.462;2024-01-07T13:15:37;20.48;;;10.68;;
27792;SDS011;15174;48.190;11.462;2024-01-07T13:18:04;19.83;;;11.07;;
27792;SDS011;15174;48.190;11.462;2024-01-07T13:20:30;22.63;;;11.75;;
27792;SDS011;15174;48.190;11.462;2024-01-07T13:22:56;26.17;;;11.80;;
27792;SDS011;15174;48.190;11.462;2024-01-07T13:25:22;19.73;;;10.77;;
27792;SDS011;15174;48.190;11.462;2024-01-07T13:27:48;21.98;;;11.30;;
27792;SDS011;15174;48.190;11.462;2024-01-07T13:30:14;25.23;;;11.68;;
27792;SDS011;15174;48.190;11.462;2024-01-07T13:32:41;20.77;;;11.93;;
27792;SDS011;15174;48.190;11.462;2024-01-07T13:35:07;28.42;;;12.95;;
27792;SDS011;15174;48.190;11.462;2024-01-07T13:37:35;27.98;;;13.52;;
27792;SDS011;15174;48.190;11.462;2024-01-07T13:40:02;24.13;;;12.05;;
27792;SDS011;15174;48.190;11.462;2024-01-07T13:42:29;30.30;;;13.35;;
27792;SDS011;15174;48.190;11.462;2024-01-07T13:44:55;25.80;;;13.30;;
27792;SDS011;15174;48.190;11.462;2024-01-07T13:47:21;25.38;;;12.30;;
27792;SDS011;15174;48.190;11.462;2024-01-07T13:49:47;26.67;;;13.07;;
27792;SDS011;15174;48.190;11.462;2024-01-07T13:52:13;27.50;;;13.38;;
27792;SDS011;15174;48.190;11.462;2024-01-07T13:54:40;22.00;;;12.38;;
27792;SDS011;15174;48.190;11.462;2024-01-07T13:57:06;29.85;;;13.85;;
27792;SDS011;15174;48.190;11.462;2024-01-07T13:59:32;24.02;;;12.27;;
27792;SDS011;15174;48.190;11.462;2024-01-07T14:01:58;24.63;;;12.07;;
27792;SDS011;15174;48.190;11.462;2024-01-07T14:04:24;26.50;;;13.40;;
27792;SDS011;15174;48.190;11.462;2024-01-07T14:06:56;23.65;;;13.55;;
27792;SDS011;15174;48.190;11.462;2024-01-07T14:09:23;23.67;;;12.20;;
27792;SDS011;15174;48.190;11.462;2024-01-07T14:11:49;23.30;;;12.27;;
27792;SDS011;15174;48.190;11.462;2024-01-07T14:14:16;20.50;;;11.35;;
27792;SDS011;15174;48.190;11.462;2024-01-07T14:16:44;28.67;;;12.50;;